Time;durP1;ratioP1;P1;durP2;ratioP2;P2;SDS_P1;SDS_P2;PMS_P1;PMS_P2;Temp;Humidity;BMP_temperature;BMP_pressure;BME280_temperature;BME280_humidity;BME280_pressure;Samples;Min_cycle;Max_cycle;Signal;HPM_P1;HPM_P2
2023/04/16 00:01:33;;;;;;;;;;;;;;;;;;5054476;28;19979;-68
2023/04/16 00:03:58;;;;;;;;;;;;;;;;;;5054225;28;20047;-68
2023/04/16 00:06:24;;;;;;;;;;;;;;;;;;5054184;28;19991;-68
2023/04/16 00:08:50;;;;;;;;;;;;;;;;;;5054082;28;19960;-69
2023/04/16 00:11:16;;;;;;;;;;;;;;;;;;5054400;28;19960;-68
2023/04/16 00:13:42;;;;;;;;;;;;;;;;;;5053452;28;19963;-68
2023/04/16 00:16:08;;;;;;;;;;;;;;;;;;5054279;28;20013;-69
2023/04/16 00:18:34;;;;;;;;;;;;;;;;;;5053994;28;20009;-67
2023/04/16 00:21:00;;;;;;;;;;;;;;;;;;5053830;28;19962;-69
2023/04/16 00:23:26;;;;;;;;;;;;;;;;;;5052302;28;19980;-68
2023/04/16 00:25:52;;;;;;;;;;;;;;;;;;5054440;28;20001;-69
2023/04/16 00:28:18;;;;;;;;;;;;;;;;;;5053861;28;20446;-68
2023/04/16 00:30:44;;;;;;;;;;;;;;;;;;5053737;28;19975;-68
2023/04/16 00:33:10;;;;;;;;;;;;;;;;;;5054070;28;19956;-68
2023/04/16 00:35:37;;;;;;;;;;;;;;;;;;5053785;28;19963;-68
2023/04/16 00:38:03;;;;;;;;;;;;;;;;;;5054360;28;19956;-67
2023/04/16 00:40:29;;;;;;;;;;;;;;;;;;5054484;28;20427;-69
2023/04/16 00:42:55;;;;;;;;;;;;;;;;;;5053896;28;20022;-68
2023/04/16 00:45:21;;;;;;;;;;;;;;;;;;5053871;28;20423;-68
2023/04/16 00:47:47;;;;;;;;;;;;;;;;;;5053633;28;20070;-69
2023/04/16 00:50:13;;;;;;;;;;;;;;;;;;5053623;28;20050;-68
2023/04/16 00:52:39;;;;;;;;;;;;;;;;;;5053488;28;19964;-68
2023/04/16 00:55:05;;;;;;;;;;;;;;;;;;5053541;28;20047;-69
2023/04/16 00:57:31;;;;;;;;;;;;;;;;;;5053525;28;19962;-68
2023/04/16 00:59:57;;;;;;;;;;;;;;;;;;5053505;28;20396;-69
2023/04/16 01:02:22;;;;;;;;;;;;;;;;;;5053387;28;20087;-69
2023/04/16 01:04:48;;;;;;;;;;;;;;;;;;5053732;28;19956;-68
2023/04/16 01:07:14;;;;;;;;;;;;;;;;;;5053444;28;19983;-69
2023/04/16 01:09:40;;;;;;;;;;;;;;;;;;5053346;28;20395;-68
2023/04/16 01:12:06;;;;;;;;;;;;;;;;;;5053380;28;19960;-69
2023/04/16 01:14:35;;;;;;;;;;;;;;;;;;5053912;28;20324;-69
2023/04/16 01:17:00;;;;;;;;;;;;;;;;;;5053613;28;20328;-69
2023/04/16 01:19:27;;;;;;;;;;;;;;;;;;5053295;28;19956;-67
2023/04/16 01:21:53;;;;;;;;;;;;;;;;;;5053153;28;19992;-68
2023/04/16 01:24:19;;;;;;;;;;;;;;;;;;5054974;28;20078;-68
2023/04/16 01:26:45;;;;;;;;;;;;;;;;;;5057199;28;19955;-67
2023/04/16 01:29:11;;;;;;;;;;;;;;;;;;5057370;28;19970;-67
2023/04/16 01:31:37;;;;;;;;;;;;;;;;;;5057120;28;19963;-68
2023/04/16 01:34:03;;;;;;;;;;;;;;;;;;5057065;28;19959;-67
2023/04/16 01:36:29;;;;;;;;;;;;;;;;;;5057021;28;19960;-69
2023/04/16 01:38:55;;;;;;;;;;;;;;;;;;5057236;28;19982;-68
2023/04/16 01:41:21;;;;;;;;;;;;;;;;;;5056862;28;19962;-68
2023/04/16 01:43:47;;;;;;;;;;;;;;;;;;5057143;28;20370;-68
2023/04/16 01:46:13;;;;;;;;;;;;;;;;;;5056842;28;19964;-68
2023/04/16 01:48:39;;;;;;;;;;;;;;;;;;5056806;28;20005;-69
2023/04/16 01:51:05;;;;;;;;;;;;;;;;;;5056778;28;19963;-68
2023/04/16 01:53:31;;;;;;;;;;;;;;;;;;5056962;28;19956;-68
2023/04/16 01:55:57;;;;;;;;;;;;;;;;;;5056921;28;19982;-68
2023/04/16 01:58:23;;;;;;;;;;;;;;;;;;5057201;28;19963;-68
2023/04/16 02:00:49;;;;;;;;;;;;;;;;;;5056857;28;19963;-67
2023/04/16 02:03:16;;;;;;;;;;;;;;;;;;5056750;28;20074;-68
2023/04/16 02:05:42;;;;;;;;;;;;;;;;;;5056759;28;19983;-69
2023/04/16 02:08:08;;;;;;;;;;;;;;;;;;5056481;28;19956;-68
2023/04/16 02:10:33;;;;;;;;;;;;;;;;;;5057225;28;19959;-68
2023/04/16 02:12:59;;;;;;;;;;;;;;;;;;5056378;28;19956;-68
2023/04/16 02:15:25;;;;;;;;;;;;;;;;;;5056315;28;19956;-68
2023/04/16 02:17:55;;;;;;;;;;;;;;;;;;5056289;28;19955;-68
2023/04/16 02:20:21;;;;;;;;;;;;;;;;;;5056500;28;19956;-68
2023/04/16 02:22:47;;;;;;;;;;;;;;;;;;5055779;28;20485;-68
2023/04/16 02:25:15;;;;;;;;;;;;;;;;;;5055702;28;20290;-68
2023/04/16 02:27:40;;;;;;;;;;;;;;;;;;5056357;28;20018;-69
2023/04/16 02:30:06;;;;;;;;;;;;;;;;;;5056126;28;19972;-68
2023/04/16 02:32:32;;;;;;;;;;;;;;;;;;5056032;28;19955;-68
2023/04/16 02:34:58;;;;;;;;;;;;;;;;;;5055827;28;19960;-68
2023/04/16 02:37:24;;;;;;;;;;;;;;;;;;5055861;28;20009;-69
2023/04/16 02:39:51;;;;;;;;;;;;;;;;;;5056100;28;20313;-68
2023/04/16 02:42:17;;;;;;;;;;;;;;;;;;5056577;28;19998;-68
2023/04/16 02:44:43;;;;;;;;;;;;;;;;;;5056597;28;19955;-69
2023/04/16 02:47:09;;;;;;;;;;;;;;;;;;5055727;28;19956;-68
2023/04/16 02:49:35;;;;;;;;;;;;;;;;;;5055692;28;19995;-67
2023/04/16 02:52:01;;;;;;;;;;;;;;;;;;5055613;28;19955;-69
2023/04/16 02:54:26;;;;;;;;;;;;;;;;;;5055559;28;19963;-69
2023/04/16 02:56:52;;;;;;;;;;;;;;;;;;5055777;28;20006;-69
2023/04/16 02:59:18;;;;;;;;;;;;;;;;;;5056001;28;19963;-69
2023/04/16 03:01:44;;;;;;;;;;;;;;;;;;5055634;28;19987;-68
2023/04/16 03:04:10;;;;;;;;;;;;;;;;;;5055440;28;20047;-68
2023/04/16 03:06:36;;;;;;;;;;;;;;;;;;5055685;28;19956;-68
2023/04/16 03:09:02;;;;;;;;;;;;;;;;;;5056143;28;19963;-68
2023/04/16 03:11:28;;;;;;;;;;;;;;;;;;5055312;28;20006;-68
2023/04/16 03:13:54;;;;;;;;;;;;;;;;;;5055965;28;20419;-67
2023/04/16 03:16:20;;;;;;;;;;;;;;;;;;5055188;28;20436;-68
2023/04/16 03:18:46;;;;;;;;;;;;;;;;;;5055391;28;20352;-68
2023/04/16 03:21:12;;;;;;;;;;;;;;;;;;5055297;28;19987;-68
2023/04/16 03:23:37;;;;;;;;;;;;;;;;;;5055234;28;19983;-69
2023/04/16 03:26:03;;;;;;;;;;;;;;;;;;5055226;28;20010;-69
2023/04/16 03:28:29;;;;;;;;;;;;;;;;;;5054923;28;19995;-69
2023/04/16 03:30:55;;;;;;;;;;;;;;;;;;5054799;28;20478;-68
2023/04/16 03:33:21;;;;;;;;;;;;;;;;;;5054831;28;20046;-69
2023/04/16 03:35:47;;;;;;;;;;;;;;;;;;5055054;28;20043;-68
2023/04/16 03:38:13;;;;;;;;;;;;;;;;;;5054993;28;19956;-69
2023/04/16 03:40:39;;;;;;;;;;;;;;;;;;5054650;28;19956;-69
2023/04/16 03:43:05;;;;;;;;;;;;;;;;;;5054585;28;20018;-68
2023/04/16 03:45:31;;;;;;;;;;;;;;;;;;5054626;28;19960;-69
2023/04/16 03:47:57;;;;;;;;;;;;;;;;;;5053583;28;20416;-68
2023/04/16 03:50:23;;;;;;;;;;;;;;;;;;5054521;28;19956;-68
2023/04/16 03:52:49;;;;;;;;;;;;;;;;;;5054500;28;20411;-68
2023/04/16 03:55:15;;;;;;;;;;;;;;;;;;5054981;28;19956;-69
2023/04/16 03:57:41;;;;;;;;;;;;;;;;;;5054417;28;20025;-69
2023/04/16 04:00:07;;;;;;;;;;;;;;;;;;5054340;28;20436;-68
2023/04/16 04:02:33;;;;;;;;;;;;;;;;;;5054227;28;20439;-68
2023/04/16 04:04:59;;;;;;;;;;;;;;;;;;5054511;28;19960;-68
2023/04/16 04:07:25;;;;;;;;;;;;;;;;;;5054474;28;20009;-68
2023/04/16 04:09:51;;;;;;;;;;;;;;;;;;5054169;28;19955;-68
2023/04/16 04:12:17;;;;;;;;;;;;;;;;;;5054427;28;19963;-69
2023/04/16 04:14:43;;;;;;;;;;;;;;;;;;5054055;28;19956;-69
2023/04/16 04:17:09;;;;;;;;;;;;;;;;;;5054596;28;20392;-68
2023/04/16 04:19:35;;;;;;;;;;;;;;;;;;5054256;28;19974;-68
2023/04/16 04:22:01;;;;;;;;;;;;;;;;;;5053852;28;20610;-69
2023/04/16 04:24:26;;;;;;;;;;;;;;;;;;5053955;28;19956;-68
2023/04/16 04:26:52;;;;;;;;;;;;;;;;;;5054201;28;20001;-68
2023/04/16 04:29:18;;;;;;;;;;;;;;;;;;5053793;28;19971;-69
2023/04/16 04:31:44;;;;;;;;;;;;;;;;;;5054686;28;19998;-68
2023/04/16 04:34:10;;;;;;;;;;;;;;;;;;5053782;28;19963;-67
2023/04/16 04:36:36;;;;;;;;;;;;;;;;;;5054061;28;19956;-68
2023/04/16 04:39:02;;;;;;;;;;;;;;;;;;5053646;28;19960;-68
2023/04/16 04:41:28;;;;;;;;;;;;;;;;;;5053296;28;19960;-68
2023/04/16 04:43:54;;;;;;;;;;;;;;;;;;5053957;28;19964;-69
2023/04/16 04:46:20;;;;;;;;;;;;;;;;;;5053662;28;19956;-68
2023/04/16 04:48:46;;;;;;;;;;;;;;;;;;5054166;28;20005;-68
2023/04/16 04:51:12;;;;;;;;;;;;;;;;;;5053603;28;20014;-68
2023/04/16 04:53:38;;;;;;;;;;;;;;;;;;5053828;28;20074;-69
2023/04/16 04:56:04;;;;;;;;;;;;;;;;;;5053806;28;20440;-68
2023/04/16 04:58:30;;;;;;;;;;;;;;;;;;5054144;28;19963;-68
2023/04/16 05:00:56;;;;;;;;;;;;;;;;;;5057718;28;20046;-68
2023/04/16 05:03:21;;;;;;;;;;;;;;;;;;5057879;28;19976;-68
2023/04/16 05:05:47;;;;;;;;;;;;;;;;;;5057600;28;19960;-69
2023/04/16 05:08:13;;;;;;;;;;;;;;;;;;5057578;28;20366;-69
2023/04/16 05:10:39;;;;;;;;;;;;;;;;;;5057551;28;19960;-69
2023/04/16 05:13:05;;;;;;;;;;;;;;;;;;5058026;28;20357;-68
2023/04/16 05:15:31;;;;;;;;;;;;;;;;;;5057457;28;20006;-68
2023/04/16 05:17:57;;;;;;;;;;;;;;;;;;5057634;28;20010;-69
2023/04/16 05:20:23;;;;;;;;;;;;;;;;;;5057345;28;19956;-68
2023/04/16 05:22:49;;;;;;;;;;;;;;;;;;5056897;28;19992;-69
2023/04/16 05:25:16;;;;;;;;;;;;;;;;;;5057261;28;19954;-68
2023/04/16 05:27:42;;;;;;;;;;;;;;;;;;5057210;28;19956;-69
2023/04/16 05:30:08;;;;;;;;;;;;;;;;;;5057141;28;20041;-68
2023/04/16 05:32:33;;;;;;;;;;;;;;;;;;5057118;28;19956;-68
2023/04/16 05:34:59;;;;;;;;;;;;;;;;;;5057050;28;19956;-69
2023/04/16 05:37:25;;;;;;;;;;;;;;;;;;5057300;28;19963;-68
2023/04/16 05:39:51;;;;;;;;;;;;;;;;;;5057236;28;19992;-68
2023/04/16 05:42:17;;;;;;;;;;;;;;;;;;5056787;28;19983;-68
2023/04/16 05:44:43;;;;;;;;;;;;;;;;;;5057462;28;19956;-69
2023/04/16 05:47:09;;;;;;;;;;;;;;;;;;5056897;28;19992;-68
2023/04/16 05:49:36;;;;;;;;;;;;;;;;;;5057096;28;20022;-69
2023/04/16 05:52:02;;;;;;;;;;;;;;;;;;5057074;28;19956;-68
2023/04/16 05:54:28;;;;;;;;;;;;;;;;;;5056750;28;20005;-68
2023/04/16 05:56:55;;;;;;;;;;;;;;;;;;5055216;28;19963;-68
2023/04/16 05:59:21;;;;;;;;;;;;;;;;;;5056913;28;20393;-67
2023/04/16 06:01:47;;;;;;;;;;;;;;;;;;5057099;28;19976;-69
2023/04/16 06:04:12;;;;;;;;;;;;;;;;;;5056577;28;20047;-69
2023/04/16 06:06:39;;;;;;;;;;;;;;;;;;5056531;28;19962;-69
2023/04/16 06:09:05;;;;;;;;;;;;;;;;;;5056769;28;19983;-69
2023/04/16 06:11:30;;;;;;;;;;;;;;;;;;5055577;28;19956;-68
2023/04/16 06:13:56;;;;;;;;;;;;;;;;;;5056986;28;19956;-69
2023/04/16 06:16:22;;;;;;;;;;;;;;;;;;5056332;28;20448;-68
2023/04/16 06:18:48;;;;;;;;;;;;;;;;;;5056313;28;20408;-68
2023/04/16 06:21:14;;;;;;;;;;;;;;;;;;5056118;28;20415;-67
2023/04/16 06:23:40;;;;;;;;;;;;;;;;;;5056457;28;19983;-67
2023/04/16 06:26:06;;;;;;;;;;;;;;;;;;5056168;28;19963;-68
2023/04/16 06:28:32;;;;;;;;;;;;;;;;;;5056121;28;19969;-67
2023/04/16 06:30:58;;;;;;;;;;;;;;;;;;5056251;28;20046;-68
2023/04/16 06:33:24;;;;;;;;;;;;;;;;;;5056018;28;20416;-67
2023/04/16 06:35:50;;;;;;;;;;;;;;;;;;5055951;28;19999;-68
2023/04/16 06:38:16;;;;;;;;;;;;;;;;;;5056162;28;20435;-68
2023/04/16 06:40:41;;;;;;;;;;;;;;;;;;5056151;28;19959;-68
2023/04/16 06:43:07;;;;;;;;;;;;;;;;;;5055722;28;20025;-67
2023/04/16 06:45:33;;;;;;;;;;;;;;;;;;5055800;28;19955;-68
2023/04/16 06:48:00;;;;;;;;;;;;;;;;;;5055995;28;19956;-67
2023/04/16 06:50:27;;;;;;;;;;;;;;;;;;5054386;28;20054;-69
2023/04/16 06:52:53;;;;;;;;;;;;;;;;;;5055889;28;20027;-67
2023/04/16 06:55:19;;;;;;;;;;;;;;;;;;5055594;28;19959;-69
2023/04/16 06:57:45;;;;;;;;;;;;;;;;;;5055795;28;20332;-69
2023/04/16 07:00:11;;;;;;;;;;;;;;;;;;5055470;28;19963;-68
2023/04/16 07:02:36;;;;;;;;;;;;;;;;;;5055570;28;19980;-69
2023/04/16 07:05:02;;;;;;;;;;;;;;;;;;5055402;28;19956;-69
2023/04/16 07:07:28;;;;;;;;;;;;;;;;;;5055571;28;19959;-70
2023/04/16 07:09:54;;;;;;;;;;;;;;;;;;5055329;28;19964;-68
2023/04/16 07:12:20;;;;;;;;;;;;;;;;;;5055577;28;20417;-69
2023/04/16 07:14:46;;;;;;;;;;;;;;;;;;5055475;28;20049;-70
2023/04/16 07:17:12;;;;;;;;;;;;;;;;;;5055179;28;19962;-70
2023/04/16 07:19:38;;;;;;;;;;;;;;;;;;5055094;28;19961;-70
2023/04/16 07:22:04;;;;;;;;;;;;;;;;;;5055219;28;20002;-70
2023/04/16 07:24:30;;;;;;;;;;;;;;;;;;5055046;28;19956;-69
2023/04/16 07:26:56;;;;;;;;;;;;;;;;;;5054972;28;19956;-69
2023/04/16 07:29:22;;;;;;;;;;;;;;;;;;5055109;28;20038;-69
2023/04/16 07:31:47;;;;;;;;;;;;;;;;;;5054910;28;19959;-69
2023/04/16 07:34:13;;;;;;;;;;;;;;;;;;5054850;28;19963;-69
2023/04/16 07:36:39;;;;;;;;;;;;;;;;;;5055411;28;19971;-69
2023/04/16 07:39:05;;;;;;;;;;;;;;;;;;5054780;28;20026;-70
2023/04/16 07:41:31;;;;;;;;;;;;;;;;;;5054656;28;20046;-69
2023/04/16 07:43:57;;;;;;;;;;;;;;;;;;5054938;28;19956;-69
2023/04/16 07:46:23;;;;;;;;;;;;;;;;;;5054581;28;19956;-69
2023/04/16 07:48:49;;;;;;;;;;;;;;;;;;5054577;28;19954;-69
2023/04/16 07:51:15;;;;;;;;;;;;;;;;;;5055057;28;20411;-70
2023/04/16 07:53:42;;;;;;;;;;;;;;;;;;5054452;28;19954;-69
2023/04/16 07:56:08;;;;;;;;;;;;;;;;;;5053128;28;20364;-70
2023/04/16 07:58:34;;;;;;;;;;;;;;;;;;5054393;28;20000;-68
2023/04/16 08:01:00;;;;;;;;;;;;;;;;;;5054580;28;20009;-68
2023/04/16 08:03:26;;;;;;;;;;;;;;;;;;5054786;28;20383;-69
2023/04/16 08:05:52;;;;;;;;;;;;;;;;;;5054533;28;19956;-70
2023/04/16 08:08:17;;;;;;;;;;;;;;;;;;5054779;28;19956;-69
2023/04/16 08:10:43;;;;;;;;;;;;;;;;;;5054183;28;19961;-69
2023/04/16 08:13:09;;;;;;;;;;;;;;;;;;5054158;28;20005;-70
2023/04/16 08:15:35;;;;;;;;;;;;;;;;;;5054116;28;20046;-68
2023/04/16 08:18:01;;;;;;;;;;;;;;;;;;5054055;28;20482;-70
2023/04/16 08:20:27;;;;;;;;;;;;;;;;;;5054012;28;20050;-70
2023/04/16 08:22:53;;;;;;;;;;;;;;;;;;5053513;28;19992;-69
2023/04/16 08:25:19;;;;;;;;;;;;;;;;;;5053946;28;19956;-68
2023/04/16 08:27:45;;;;;;;;;;;;;;;;;;5054442;28;19963;-69
2023/04/16 08:30:11;;;;;;;;;;;;;;;;;;5054051;28;20017;-69
2023/04/16 08:32:37;;;;;;;;;;;;;;;;;;5054356;28;20005;-69
2023/04/16 08:35:04;;;;;;;;;;;;;;;;;;5053487;28;19955;-69
2023/04/16 08:37:30;;;;;;;;;;;;;;;;;;5052259;28;20055;-69
2023/04/16 08:39:56;;;;;;;;;;;;;;;;;;5053732;28;20462;-70
2023/04/16 08:42:22;;;;;;;;;;;;;;;;;;5053594;28;20071;-70
2023/04/16 08:44:48;;;;;;;;;;;;;;;;;;5053894;28;20303;-69
2023/04/16 08:47:14;;;;;;;;;;;;;;;;;;5053870;28;20471;-69
2023/04/16 08:49:40;;;;;;;;;;;;;;;;;;5054121;28;20003;-70
2023/04/16 08:52:06;;;;;;;;;;;;;;;;;;5053778;28;19956;-70
2023/04/16 08:54:32;;;;;;;;;;;;;;;;;;5053661;28;20511;-71
2023/04/16 08:56:58;;;;;;;;;;;;;;;;;;5053807;28;19956;-69
2023/04/16 08:59:24;;;;;;;;;;;;;;;;;;5054045;28;20002;-69
2023/04/16 09:01:51;;;;;;;;;;;;;;;;;;5053290;28;19991;-69
2023/04/16 09:04:17;;;;;;;;;;;;;;;;;;5053354;28;20021;-69
2023/04/16 09:06:42;;;;;;;;;;;;;;;;;;5053990;28;20316;-69
2023/04/16 09:09:08;;;;;;;;;;;;;;;;;;5053725;28;19995;-69
2023/04/16 09:11:34;;;;;;;;;;;;;;;;;;5053331;28;19966;-68
2023/04/16 09:14:00;;;;;;;;;;;;;;;;;;5053912;28;19956;-69
2023/04/16 09:16:26;;;;;;;;;;;;;;;;;;5053340;28;19956;-69
2023/04/16 09:18:52;;;;;;;;;;;;;;;;;;5053620;28;19963;-69
2023/04/16 09:21:18;;;;;;;;;;;;;;;;;;5053130;28;20438;-70
2023/04/16 09:23:44;;;;;;;;;;;;;;;;;;5053514;28;19986;-70
2023/04/16 09:26:10;;;;;;;;;;;;;;;;;;5053246;28;19956;-69
2023/04/16 09:28:36;;;;;;;;;;;;;;;;;;5053298;28;19963;-69
2023/04/16 09:31:02;;;;;;;;;;;;;;;;;;5053171;28;20386;-69
2023/04/16 09:33:28;;;;;;;;;;;;;;;;;;5053207;28;20131;-69
2023/04/16 09:35:54;;;;;;;;;;;;;;;;;;5053488;28;19956;-68
2023/04/16 09:38:20;;;;;;;;;;;;;;;;;;5053107;28;19956;-69
2023/04/16 09:40:46;;;;;;;;;;;;;;;;;;5053425;28;20002;-70
2023/04/16 09:43:12;;;;;;;;;;;;;;;;;;5053050;28;19975;-69
2023/04/16 09:45:38;;;;;;;;;;;;;;;;;;5055224;28;19962;-70
2023/04/16 09:48:04;;;;;;;;;;;;;;;;;;5056850;28;20393;-69
2023/04/16 09:50:30;;;;;;;;;;;;;;;;;;5057040;28;19962;-69
2023/04/16 09:52:56;;;;;;;;;;;;;;;;;;5056823;28;19956;-69
2023/04/16 09:55:22;;;;;;;;;;;;;;;;;;5056987;28;20017;-69
2023/04/16 09:57:48;;;;;;;;;;;;;;;;;;5056709;28;19963;-69
2023/04/16 10:00:14;;;;;;;;;;;;;;;;;;5057224;28;19959;-69
2023/04/16 10:02:40;;;;;;;;;;;;;;;;;;5056823;28;19975;-69
2023/04/16 10:05:06;;;;;;;;;;;;;;;;;;5056587;28;20309;-69
2023/04/16 10:07:32;;;;;;;;;;;;;;;;;;5056496;28;19963;-70
2023/04/16 10:09:58;;;;;;;;;;;;;;;;;;5056434;28;19956;-69
2023/04/16 10:12:24;;;;;;;;;;;;;;;;;;5056346;28;19960;-70
2023/04/16 10:14:50;;;;;;;;;;;;;;;;;;5056582;28;20041;-69
2023/04/16 10:17:16;;;;;;;;;;;;;;;;;;5056332;28;19956;-70
2023/04/16 10:19:42;;;;;;;;;;;;;;;;;;5056233;28;20009;-69
2023/04/16 10:22:07;;;;;;;;;;;;;;;;;;5055978;28;20014;-68
2023/04/16 10:24:34;;;;;;;;;;;;;;;;;;5056073;28;20424;-68
2023/04/16 10:27:00;;;;;;;;;;;;;;;;;;5056125;28;19962;-68
2023/04/16 10:29:26;;;;;;;;;;;;;;;;;;5055955;28;20444;-69
2023/04/16 10:31:52;;;;;;;;;;;;;;;;;;5056014;28;19955;-69
2023/04/16 10:34:17;;;;;;;;;;;;;;;;;;5055871;28;19959;-69
2023/04/16 10:36:43;;;;;;;;;;;;;;;;;;5056155;28;19956;-68
2023/04/16 10:39:10;;;;;;;;;;;;;;;;;;5055831;28;19960;-69
2023/04/16 10:41:36;;;;;;;;;;;;;;;;;;5055803;28;19955;-69
2023/04/16 10:44:02;;;;;;;;;;;;;;;;;;5056059;28;20051;-69
2023/04/16 10:46:27;;;;;;;;;;;;;;;;;;5055734;28;19956;-69
2023/04/16 10:48:53;;;;;;;;;;;;;;;;;;5056263;28;20047;-68
2023/04/16 10:51:19;;;;;;;;;;;;;;;;;;5055618;28;19956;-67
2023/04/16 10:53:45;;;;;;;;;;;;;;;;;;5055873;28;19962;-69
2023/04/16 10:56:11;;;;;;;;;;;;;;;;;;5055360;28;20432;-68
2023/04/16 10:58:37;;;;;;;;;;;;;;;;;;5055199;28;20006;-69
2023/04/16 11:01:03;;;;;;;;;;;;;;;;;;5056101;28;20358;-69
2023/04/16 11:03:29;;;;;;;;;;;;;;;;;;5055363;28;20018;-68
2023/04/16 11:05:55;;;;;;;;;;;;;;;;;;5055456;28;19956;-69
2023/04/16 11:08:21;;;;;;;;;;;;;;;;;;5055676;28;20038;-69
2023/04/16 11:10:47;;;;;;;;;;;;;;;;;;5055597;28;20315;-68
2023/04/16 11:13:13;;;;;;;;;;;;;;;;;;5055526;28;19956;-68
2023/04/16 11:15:39;;;;;;;;;;;;;;;;;;5055174;28;20049;-69
2023/04/16 11:18:05;;;;;;;;;;;;;;;;;;5055464;28;19959;-69
2023/04/16 11:20:31;;;;;;;;;;;;;;;;;;5055386;28;19956;-67
2023/04/16 11:22:57;;;;;;;;;;;;;;;;;;5054575;28;19998;-70
2023/04/16 11:25:23;;;;;;;;;;;;;;;;;;5055304;28;20049;-70
2023/04/16 11:27:49;;;;;;;;;;;;;;;;;;5054993;28;19956;-68
2023/04/16 11:30:15;;;;;;;;;;;;;;;;;;5054826;28;20001;-69
2023/04/16 11:32:41;;;;;;;;;;;;;;;;;;5054894;28;19956;-69
2023/04/16 11:35:07;;;;;;;;;;;;;;;;;;5055384;28;20316;-69
2023/04/16 11:37:33;;;;;;;;;;;;;;;;;;5054780;28;19955;-69
2023/04/16 11:39:59;;;;;;;;;;;;;;;;;;5054736;28;20340;-68
2023/04/16 11:42:25;;;;;;;;;;;;;;;;;;5054497;28;19984;-68
2023/04/16 11:44:52;;;;;;;;;;;;;;;;;;5054714;28;20374;-70
2023/04/16 11:47:18;;;;;;;;;;;;;;;;;;5054634;28;19962;-68
2023/04/16 11:49:43;;;;;;;;;;;;;;;;;;5054861;28;20046;-68
2023/04/16 11:52:10;;;;;;;;;;;;;;;;;;5054555;28;20316;-69
2023/04/16 11:54:36;;;;;;;;;;;;;;;;;;5054800;28;19956;-68
2023/04/16 11:57:03;;;;;;;;;;;;;;;;;;5054417;28;19962;-68
2023/04/16 11:59:29;;;;;;;;;;;;;;;;;;5054675;28;20009;-68
2023/04/16 12:01:55;;;;;;;;;;;;;;;;;;5054276;28;19956;-68
2023/04/16 12:04:23;;;;;;;;;;;;;;;;;;5054576;28;20049;-68
2023/04/16 12:06:49;;;;;;;;;;;;;;;;;;5054529;28;20009;-69
2023/04/16 12:09:14;;;;;;;;;;;;;;;;;;5053291;28;20336;-70
2023/04/16 12:11:40;;;;;;;;;;;;;;;;;;5053953;28;19956;-68
2023/04/16 12:14:06;;;;;;;;;;;;;;;;;;5054711;28;20290;-69
2023/04/16 12:16:33;;;;;;;;;;;;;;;;;;5054327;28;20320;-67
2023/04/16 12:19:00;;;;;;;;;;;;;;;;;;5054256;28;19963;-68
2023/04/16 12:21:26;;;;;;;;;;;;;;;;;;5053779;28;20078;-69
2023/04/16 12:23:52;;;;;;;;;;;;;;;;;;5054089;28;20066;-68
2023/04/16 12:26:18;;;;;;;;;;;;;;;;;;5053837;28;20422;-70
2023/04/16 12:28:43;;;;;;;;;;;;;;;;;;5054155;28;19956;-68
2023/04/16 12:31:09;;;;;;;;;;;;;;;;;;5053660;28;20444;-69
2023/04/16 12:33:35;;;;;;;;;;;;;;;;;;5053621;28;19988;-69
2023/04/16 12:36:03;;;;;;;;;;;;;;;;;;5053882;28;19963;-68
2023/04/16 12:38:29;;;;;;;;;;;;;;;;;;5053799;28;20027;-69
2023/04/16 12:40:56;;;;;;;;;;;;;;;;;;5053600;28;19967;-70
2023/04/16 12:43:22;;;;;;;;;;;;;;;;;;5054048;28;19983;-68
2023/04/16 12:45:48;;;;;;;;;;;;;;;;;;5053836;28;19960;-70
2023/04/16 12:48:14;;;;;;;;;;;;;;;;;;5052074;28;19967;-68
2023/04/16 12:50:42;;;;;;;;;;;;;;;;;;5053895;28;19963;-69
2023/04/16 12:53:08;;;;;;;;;;;;;;;;;;5053674;28;19956;-68
2023/04/16 12:55:34;;;;;;;;;;;;;;;;;;5053947;28;20312;-68
2023/04/16 12:58:00;;;;;;;;;;;;;;;;;;5053701;28;20050;-69
2023/04/16 13:00:26;;;;;;;;;;;;;;;;;;5053216;28;20451;-68
2023/04/16 13:02:52;;;;;;;;;;;;;;;;;;5053306;28;19982;-69
2023/04/16 13:05:18;;;;;;;;;;;;;;;;;;5053937;28;19956;-68
2023/04/16 13:07:44;;;;;;;;;;;;;;;;;;5053659;28;19955;-68
2023/04/16 13:10:10;;;;;;;;;;;;;;;;;;5053359;28;19956;-69
2023/04/16 13:12:36;;;;;;;;;;;;;;;;;;5053266;28;20057;-69
2023/04/16 13:15:02;;;;;;;;;;;;;;;;;;5053689;28;20408;-69
2023/04/16 13:17:28;;;;;;;;;;;;;;;;;;5053307;28;20474;-69
2023/04/16 13:19:54;;;;;;;;;;;;;;;;;;5053992;28;19958;-69
2023/04/16 13:22:20;;;;;;;;;;;;;;;;;;5057272;28;20470;-69
2023/04/16 13:24:45;;;;;;;;;;;;;;;;;;5057533;28;19971;-69
2023/04/16 13:27:12;;;;;;;;;;;;;;;;;;5057161;28;20356;-69
2023/04/16 13:29:38;;;;;;;;;;;;;;;;;;5057119;28;20340;-69
2023/04/16 13:32:04;;;;;;;;;;;;;;;;;;5057705;28;19956;-68
2023/04/16 13:34:30;;;;;;;;;;;;;;;;;;5057316;28;19956;-68
2023/04/16 13:36:56;;;;;;;;;;;;;;;;;;5057007;28;19956;-68
2023/04/16 13:39:22;;;;;;;;;;;;;;;;;;5057229;28;19956;-69
2023/04/16 13:41:49;;;;;;;;;;;;;;;;;;5057136;28;19967;-70
2023/04/16 13:44:15;;;;;;;;;;;;;;;;;;5057427;28;19959;-69
2023/04/16 13:46:42;;;;;;;;;;;;;;;;;;5057178;28;19955;-69
2023/04/16 13:49:08;;;;;;;;;;;;;;;;;;5056867;28;19956;-68
2023/04/16 13:51:34;;;;;;;;;;;;;;;;;;5057228;28;20477;-70
2023/04/16 13:54:00;;;;;;;;;;;;;;;;;;5057042;28;19977;-69
2023/04/16 13:56:26;;;;;;;;;;;;;;;;;;5057036;28;20399;-70
2023/04/16 13:58:52;;;;;;;;;;;;;;;;;;5056669;28;19955;-68
2023/04/16 14:01:18;;;;;;;;;;;;;;;;;;5056890;28;19956;-69
2023/04/16 14:03:44;;;;;;;;;;;;;;;;;;5056416;28;19974;-69
2023/04/16 14:06:10;;;;;;;;;;;;;;;;;;5056538;28;19985;-69
2023/04/16 14:08:37;;;;;;;;;;;;;;;;;;5056800;28;20005;-68
2023/04/16 14:11:04;;;;;;;;;;;;;;;;;;5056451;28;19956;-69
2023/04/16 14:13:30;;;;;;;;;;;;;;;;;;5056683;28;20038;-69
2023/04/16 14:15:56;;;;;;;;;;;;;;;;;;5056671;28;20443;-69
2023/04/16 14:18:22;;;;;;;;;;;;;;;;;;5056888;28;19963;-68
2023/04/16 14:20:48;;;;;;;;;;;;;;;;;;5056076;28;20482;-68
2023/04/16 14:23:13;;;;;;;;;;;;;;;;;;5056759;28;19971;-69
2023/04/16 14:25:39;;;;;;;;;;;;;;;;;;5056440;28;19956;-69
2023/04/16 14:28:05;;;;;;;;;;;;;;;;;;5056199;28;19956;-69
2023/04/16 14:30:31;;;;;;;;;;;;;;;;;;5056600;28;20428;-69
2023/04/16 14:32:57;;;;;;;;;;;;;;;;;;5055051;28;19956;-69
2023/04/16 14:35:23;;;;;;;;;;;;;;;;;;5056622;28;20409;-69
2023/04/16 14:37:49;;;;;;;;;;;;;;;;;;5056245;28;20044;-69
2023/04/16 14:40:15;;;;;;;;;;;;;;;;;;5055975;28;20010;-68
2023/04/16 14:42:41;;;;;;;;;;;;;;;;;;5056081;28;19976;-69
2023/04/16 14:45:07;;;;;;;;;;;;;;;;;;5056401;28;19956;-69
2023/04/16 14:47:33;;;;;;;;;;;;;;;;;;5055794;28;19999;-68
2023/04/16 14:49:59;;;;;;;;;;;;;;;;;;5056014;28;20015;-69
2023/04/16 14:52:26;;;;;;;;;;;;;;;;;;5055694;28;19975;-69
2023/04/16 14:54:53;;;;;;;;;;;;;;;;;;5055902;28;20404;-68
2023/04/16 14:57:19;;;;;;;;;;;;;;;;;;5055587;28;20042;-69
2023/04/16 14:59:45;;;;;;;;;;;;;;;;;;5055844;28;20025;-68
2023/04/16 15:02:11;;;;;;;;;;;;;;;;;;5055743;28;20426;-68
2023/04/16 15:04:38;;;;;;;;;;;;;;;;;;5055488;28;20459;-69
2023/04/16 15:07:04;;;;;;;;;;;;;;;;;;5056086;28;19956;-69
2023/04/16 15:09:31;;;;;;;;;;;;;;;;;;5055668;28;19985;-68
2023/04/16 15:11:57;;;;;;;;;;;;;;;;;;5055344;28;20086;-70
2023/04/16 15:14:23;;;;;;;;;;;;;;;;;;5055897;28;19976;-68
2023/04/16 15:16:49;;;;;;;;;;;;;;;;;;5055267;28;19956;-68
2023/04/16 15:19:15;;;;;;;;;;;;;;;;;;5055203;28;19965;-69
2023/04/16 15:21:41;;;;;;;;;;;;;;;;;;5054986;28;20039;-68
2023/04/16 15:24:07;;;;;;;;;;;;;;;;;;5055303;28;19987;-68
2023/04/16 15:26:32;;;;;;;;;;;;;;;;;;5055345;28;20010;-70
2023/04/16 15:28:58;;;;;;;;;;;;;;;;;;5054953;28;19956;-69
2023/04/16 15:31:24;;;;;;;;;;;;;;;;;;5054971;28;20058;-68
2023/04/16 15:33:50;;;;;;;;;;;;;;;;;;5055198;28;19956;-69
2023/04/16 15:36:16;;;;;;;;;;;;;;;;;;5055145;28;19955;-68
2023/04/16 15:38:42;;;;;;;;;;;;;;;;;;5055402;28;20042;-68
2023/04/16 15:41:08;;;;;;;;;;;;;;;;;;5054737;28;19963;-68
2023/04/16 15:43:34;;;;;;;;;;;;;;;;;;5054574;28;19982;-68
2023/04/16 15:46:00;;;;;;;;;;;;;;;;;;5054985;28;19956;-68
2023/04/16 15:48:26;;;;;;;;;;;;;;;;;;5054688;28;20328;-69
2023/04/16 15:50:52;;;;;;;;;;;;;;;;;;5054876;28;20422;-68
2023/04/16 15:53:18;;;;;;;;;;;;;;;;;;5054597;28;19955;-68
2023/04/16 15:55:45;;;;;;;;;;;;;;;;;;5055064;28;20470;-69
2023/04/16 15:58:11;;;;;;;;;;;;;;;;;;5054818;28;19959;-70
2023/04/16 16:00:37;;;;;;;;;;;;;;;;;;5054431;28;19992;-69
2023/04/16 16:03:03;;;;;;;;;;;;;;;;;;5054324;28;19976;-68
2023/04/16 16:05:29;;;;;;;;;;;;;;;;;;5054654;28;20408;-69
2023/04/16 16:07:55;;;;;;;;;;;;;;;;;;5054551;28;19960;-69
2023/04/16 16:10:21;;;;;;;;;;;;;;;;;;5054793;28;20005;-68
2023/04/16 16:12:47;;;;;;;;;;;;;;;;;;5054207;28;19960;-69
2023/04/16 16:15:13;;;;;;;;;;;;;;;;;;5054466;28;19956;-68
2023/04/16 16:17:39;;;;;;;;;;;;;;;;;;5054095;28;19978;-69
2023/04/16 16:20:08;;;;;;;;;;;;;;;;;;5054365;28;19959;-68
2023/04/16 16:22:34;;;;;;;;;;;;;;;;;;5053741;28;20002;-69
2023/04/16 16:25:00;;;;;;;;;;;;;;;;;;5054169;28;19956;-69
2023/04/16 16:27:26;;;;;;;;;;;;;;;;;;5053897;28;19992;-69
2023/04/16 16:29:52;;;;;;;;;;;;;;;;;;5053838;28;20066;-67
2023/04/16 16:32:18;;;;;;;;;;;;;;;;;;5054139;28;20050;-69
2023/04/16 16:34:44;;;;;;;;;;;;;;;;;;5053865;28;19956;-68
2023/04/16 16:37:10;;;;;;;;;;;;;;;;;;5053849;28;19955;-69